createdAt,value
2022-12-24T00:01:06.087Z,1.20
2022-12-24T00:03:34.266Z,1.37
2022-12-24T00:06:05.146Z,1.07
2022-12-24T00:08:32.521Z,1.20
2022-12-24T00:10:59.983Z,1.00
2022-12-24T00:13:27.343Z,1.00
2022-12-24T00:15:54.681Z,1.07
2022-12-24T00:18:22.045Z,1.10
2022-12-24T00:20:49.770Z,1.27
2022-12-24T00:23:18.110Z,1.10
2022-12-24T00:25:45.801Z,1.13
2022-12-24T00:28:13.782Z,1.20
2022-12-24T00:30:41.969Z,1.93
2022-12-24T00:33:09.357Z,1.17
2022-12-24T00:35:40.483Z,1.00
2022-12-24T00:38:08.893Z,1.00
2022-12-24T00:40:36.547Z,0.90
2022-12-24T00:43:03.949Z,1.10
2022-12-24T00:45:31.483Z,0.83
2022-12-24T00:47:58.952Z,1.20
2022-12-24T00:50:26.413Z,2.13
2022-12-24T00:52:53.762Z,0.90
2022-12-24T00:55:21.130Z,1.17
2022-12-24T00:57:48.528Z,1.20
2022-12-24T01:00:18.087Z,1.13
2022-12-24T01:02:45.695Z,1.00
2022-12-24T01:05:13.412Z,1.20
2022-12-24T01:07:45.077Z,1.20
2022-12-24T01:10:14.066Z,1.13
2022-12-24T01:12:41.563Z,1.07
2022-12-24T01:15:09.553Z,1.20
2022-12-24T01:17:37.249Z,1.43
2022-12-24T01:20:06.321Z,1.80
2022-12-24T01:22:33.844Z,1.40
2022-12-24T01:25:01.406Z,1.20
2022-12-24T01:27:28.773Z,1.20
2022-12-24T01:29:56.125Z,1.37
2022-12-24T01:32:23.487Z,1.40
2022-12-24T01:34:50.799Z,1.03
2022-12-24T01:37:18.181Z,1.20
2022-12-24T01:39:45.589Z,1.10
2022-12-24T01:42:44.189Z,1.10
2022-12-24T01:45:30.493Z,1.17
2022-12-24T01:47:58.070Z,1.10
2022-12-24T01:50:25.504Z,1.10
2022-12-24T01:52:52.889Z,1.20
2022-12-24T01:55:20.355Z,1.67
2022-12-24T01:57:49.927Z,1.07
2022-12-24T02:00:17.616Z,1.60
2022-12-24T02:02:47.292Z,1.10
2022-12-24T02:05:14.723Z,1.20
2022-12-24T02:07:43.416Z,1.20
2022-12-24T02:10:12.641Z,1.57
2022-12-24T02:12:41.010Z,1.30
2022-12-24T02:15:09.706Z,1.07
2022-12-24T02:17:55.256Z,1.83
2022-12-24T02:20:41.811Z,1.40
2022-12-24T02:23:28.236Z,0.97
2022-12-24T02:26:17.700Z,1.03
2022-12-24T02:28:54.486Z,1.00
2022-12-24T02:31:25.143Z,1.10
2022-12-24T02:33:58.448Z,1.20
2022-12-24T02:36:35.599Z,1.10
2022-12-24T02:39:05.149Z,1.47
2022-12-24T02:41:53.696Z,1.57
2022-12-24T02:44:22.483Z,1.10
2022-12-24T02:46:50.762Z,1.50
2022-12-24T02:49:18.347Z,0.83
2022-12-24T02:51:45.760Z,1.10
2022-12-24T02:54:13.888Z,1.30
2022-12-24T02:57:00.152Z,0.80
2022-12-24T02:59:52.681Z,1.10
2022-12-24T03:02:27.148Z,1.20
2022-12-24T03:05:07.691Z,1.43
2022-12-24T03:07:35.057Z,0.73
2022-12-24T03:10:08.812Z,1.00
2022-12-24T03:12:38.926Z,1.20
2022-12-24T03:15:07.883Z,0.93
2022-12-24T03:17:36.625Z,1.00
2022-12-24T03:20:04.564Z,1.30
2022-12-24T03:22:33.767Z,0.93
2022-12-24T03:25:01.606Z,0.93
2022-12-24T03:27:30.574Z,1.13
2022-12-24T03:29:58.195Z,0.90
2022-12-24T03:32:26.904Z,1.10
2022-12-24T03:34:54.312Z,1.70
2022-12-24T03:37:21.701Z,0.90
2022-12-24T03:39:49.217Z,1.00
2022-12-24T03:42:16.634Z,1.10
2022-12-24T03:44:44.145Z,1.33
2022-12-24T03:47:11.651Z,0.83
2022-12-24T03:49:39.034Z,1.07
2022-12-24T03:52:06.586Z,1.50
2022-12-24T03:54:34.030Z,1.20
2022-12-24T03:57:01.687Z,1.10
2022-12-24T03:59:29.076Z,0.77
2022-12-24T04:01:56.786Z,1.13
2022-12-24T04:04:24.667Z,0.77
2022-12-24T04:06:51.984Z,0.90
2022-12-24T04:09:19.377Z,1.03
2022-12-24T04:11:46.794Z,1.10
2022-12-24T04:14:14.213Z,1.20
2022-12-24T04:16:41.753Z,0.93
2022-12-24T04:19:09.250Z,0.80
2022-12-24T04:21:36.770Z,0.97
2022-12-24T04:24:04.191Z,1.00
2022-12-24T04:26:31.660Z,0.87
2022-12-24T04:28:59.367Z,0.77
2022-12-24T04:31:26.779Z,0.80
2022-12-24T04:33:54.168Z,1.03
2022-12-24T04:36:21.928Z,1.27
2022-12-24T04:38:49.721Z,1.03
2022-12-24T04:41:23.318Z,0.70
2022-12-24T04:43:52.603Z,1.40
2022-12-24T04:46:22.263Z,1.30
2022-12-24T04:48:50.709Z,1.10
2022-12-24T04:51:18.553Z,1.13
2022-12-24T04:53:46.060Z,1.50
2022-12-24T04:56:18.166Z,0.90
2022-12-24T04:58:45.838Z,1.00
2022-12-24T05:01:14.944Z,0.80
2022-12-24T05:03:42.514Z,0.80
2022-12-24T05:06:12.315Z,1.03
2022-12-24T05:08:40.084Z,1.10
2022-12-24T05:11:07.893Z,0.90
2022-12-24T05:13:44.078Z,1.10
2022-12-24T05:16:14.369Z,0.90
2022-12-24T05:18:41.783Z,0.87
2022-12-24T05:21:14.245Z,0.90
2022-12-24T05:24:00.257Z,1.07
2022-12-24T05:26:29.723Z,1.00
2022-12-24T05:28:58.636Z,1.10
2022-12-24T05:31:27.688Z,1.03
2022-12-24T05:33:55.761Z,0.90
2022-12-24T05:36:23.778Z,0.77
2022-12-24T05:38:51.494Z,0.83
2022-12-24T05:41:18.967Z,1.10
2022-12-24T05:43:46.368Z,1.27
2022-12-24T05:46:15.522Z,0.90
2022-12-24T05:48:43.387Z,0.83
2022-12-24T05:51:11.775Z,0.97
2022-12-24T05:53:39.587Z,1.00
2022-12-24T05:56:14.265Z,0.97
2022-12-24T05:58:42.592Z,1.40
2022-12-24T06:01:10.967Z,0.90
2022-12-24T06:03:38.892Z,1.33
2022-12-24T06:06:07.767Z,1.30
2022-12-24T06:08:35.554Z,1.23
2022-12-24T06:11:03.938Z,0.70
2022-12-24T06:13:31.468Z,1.60
2022-12-24T06:15:59.670Z,1.10
2022-12-24T06:18:27.214Z,1.00
2022-12-24T06:20:55.477Z,0.77
2022-12-24T06:23:23.083Z,0.73
2022-12-24T06:25:50.998Z,1.10
2022-12-24T06:28:19.029Z,0.93
2022-12-24T06:30:50.297Z,1.20
2022-12-24T06:33:18.095Z,0.87
2022-12-24T06:35:46.081Z,0.93
2022-12-24T06:38:13.859Z,1.20
2022-12-24T06:40:41.964Z,1.17
2022-12-24T06:43:09.604Z,1.83
2022-12-24T06:45:37.413Z,1.10
2022-12-24T06:48:05.521Z,1.37
2022-12-24T06:50:36.089Z,1.80
2022-12-24T06:53:03.630Z,1.20
2022-12-24T06:55:31.036Z,1.03
2022-12-24T06:57:58.431Z,1.07
2022-12-24T07:00:25.793Z,1.20
2022-12-24T07:02:53.365Z,0.80
2022-12-24T07:05:20.871Z,1.47
2022-12-24T07:07:48.224Z,0.93
2022-12-24T07:10:16.655Z,1.40
2022-12-24T07:12:44.785Z,0.90
2022-12-24T07:15:12.675Z,1.03
2022-12-24T07:17:40.107Z,0.80
2022-12-24T07:20:08.117Z,0.93
2022-12-24T07:22:35.418Z,0.93
2022-12-24T07:25:02.779Z,1.07
2022-12-24T07:27:33.193Z,1.00
2022-12-24T07:30:00.531Z,1.10
2022-12-24T07:32:30.950Z,0.97
2022-12-24T07:34:58.241Z,1.00
2022-12-24T07:37:25.849Z,0.90
2022-12-24T07:39:53.137Z,1.50
2022-12-24T07:42:20.532Z,0.90
2022-12-24T07:44:48.054Z,1.10
2022-12-24T07:47:15.598Z,0.90
2022-12-24T07:49:43.188Z,1.00
2022-12-24T07:52:10.622Z,0.90
2022-12-24T07:54:37.998Z,1.00
2022-12-24T07:57:05.353Z,1.20
2022-12-24T07:59:32.746Z,1.10
2022-12-24T08:02:00.329Z,1.33
2022-12-24T08:04:27.936Z,1.00
2022-12-24T08:06:55.269Z,1.23
2022-12-24T08:09:22.542Z,1.00
2022-12-24T08:11:52.379Z,1.30
2022-12-24T08:14:20.266Z,1.20
2022-12-24T08:16:47.715Z,1.03
2022-12-24T08:19:15.214Z,1.30
2022-12-24T08:21:42.950Z,1.37
2022-12-24T08:24:10.351Z,0.80
2022-12-24T08:26:37.829Z,1.30
2022-12-24T08:29:05.529Z,1.03
2022-12-24T08:31:36.592Z,1.00
2022-12-24T08:34:05.226Z,1.30
2022-12-24T08:36:32.671Z,1.17
2022-12-24T08:39:03.621Z,1.23
2022-12-24T08:41:32.057Z,1.10
2022-12-24T08:43:59.580Z,1.27
2022-12-24T08:46:27.373Z,0.90
2022-12-24T08:48:56.994Z,1.43
2022-12-24T08:51:24.412Z,1.27
2022-12-24T08:53:51.776Z,1.00
2022-12-24T08:56:21.398Z,1.00
2022-12-24T08:58:49.840Z,1.10
2022-12-24T09:01:18.988Z,1.10
2022-12-24T09:03:46.931Z,0.93
2022-12-24T09:06:14.914Z,1.40
2022-12-24T09:08:42.302Z,1.00
2022-12-24T09:11:11.068Z,1.00
2022-12-24T09:13:38.637Z,1.10
2022-12-24T09:16:06.672Z,1.40
2022-12-24T09:18:34.678Z,1.10
2022-12-24T09:21:03.017Z,0.97
2022-12-24T09:23:30.402Z,1.00
2022-12-24T09:25:58.294Z,1.10
2022-12-24T09:28:25.985Z,1.30
2022-12-24T09:31:00.469Z,1.37
2022-12-24T09:33:29.123Z,1.33
2022-12-24T09:35:56.852Z,1.03
2022-12-24T09:38:24.277Z,0.90
2022-12-24T09:40:52.096Z,1.30
2022-12-24T09:43:23.053Z,1.00
2022-12-24T09:46:14.173Z,1.33
2022-12-24T09:48:44.488Z,1.30
2022-12-24T09:51:13.046Z,1.10
2022-12-24T09:53:52.422Z,1.30
2022-12-24T09:56:22.752Z,0.90
2022-12-24T09:58:54.575Z,0.90
2022-12-24T10:01:22.021Z,1.07
2022-12-24T10:03:49.488Z,0.90
2022-12-24T10:06:21.087Z,1.23
2022-12-24T10:09:13.631Z,1.47
2022-12-24T10:11:51.170Z,0.87
2022-12-24T10:14:18.457Z,1.03
2022-12-24T10:16:57.223Z,1.08
2022-12-24T10:19:30.856Z,1.27
2022-12-24T10:22:17.037Z,1.10
2022-12-24T10:24:50.551Z,0.90
2022-12-24T10:27:18.891Z,1.20
2022-12-24T10:29:50.614Z,1.30
2022-12-24T10:32:27.418Z,1.10
2022-12-24T10:35:04.666Z,1.10
2022-12-24T10:37:32.019Z,1.30
2022-12-24T10:40:00.220Z,1.17
2022-12-24T10:42:33.249Z,1.20
2022-12-24T10:45:02.925Z,1.00
2022-12-24T10:47:30.524Z,1.23
2022-12-24T10:50:03.715Z,1.30
2022-12-24T10:52:34.365Z,1.00
2022-12-24T10:55:04.633Z,0.90
2022-12-24T10:57:31.931Z,1.20
2022-12-24T10:59:59.459Z,0.93
2022-12-24T11:02:30.070Z,0.80
2022-12-24T11:05:00.211Z,1.27
2022-12-24T11:07:28.824Z,1.10
2022-12-24T11:10:00.395Z,0.90
2022-12-24T11:12:33.011Z,1.23
2022-12-24T11:15:03.418Z,1.10
2022-12-24T11:17:31.227Z,0.90
2022-12-24T11:19:59.684Z,1.23
2022-12-24T11:22:27.951Z,1.20
2022-12-24T11:25:09.253Z,1.00
2022-12-24T11:27:41.297Z,1.00
2022-12-24T11:30:32.142Z,0.90
2022-12-24T11:33:03.091Z,0.90
2022-12-24T11:35:32.169Z,1.17
2022-12-24T11:38:03.078Z,1.73
2022-12-24T11:40:37.803Z,1.17
2022-12-24T11:43:12.752Z,0.90
2022-12-24T11:45:50.025Z,1.23
2022-12-24T11:48:43.828Z,1.50
2022-12-24T11:51:22.080Z,1.17
2022-12-24T11:53:49.463Z,1.30
2022-12-24T11:56:29.308Z,1.40
2022-12-24T11:58:59.852Z,1.27
2022-12-24T12:01:59.821Z,0.93
2022-12-24T12:04:36.025Z,1.10
2022-12-24T12:07:15.094Z,1.27
2022-12-24T12:09:48.539Z,1.50
2022-12-24T12:12:29.683Z,1.03
2022-12-24T12:14:57.201Z,1.10
2022-12-24T12:17:33.678Z,1.20
2022-12-24T12:20:07.277Z,1.00
2022-12-24T12:22:40.716Z,1.20
2022-12-24T12:25:15.828Z,1.20
2022-12-24T12:27:48.496Z,1.23
2022-12-24T12:30:20.744Z,1.10
2022-12-24T12:32:52.416Z,1.00
2022-12-24T12:35:24.273Z,1.23
2022-12-24T12:37:57.008Z,0.90
2022-12-24T12:40:27.204Z,1.03
2022-12-24T12:43:02.071Z,1.20
2022-12-24T12:45:32.475Z,0.93
2022-12-24T12:48:05.913Z,1.03
2022-12-24T12:50:33.357Z,1.17
2022-12-24T12:53:22.991Z,1.20
2022-12-24T12:56:13.331Z,1.03
2022-12-24T12:58:44.458Z,1.13
2022-12-24T13:01:32.448Z,1.03
2022-12-24T13:04:19.135Z,1.00
2022-12-24T13:06:51.911Z,1.60
2022-12-24T13:09:34.621Z,1.00
2022-12-24T13:12:14.294Z,1.03
2022-12-24T13:14:47.843Z,1.00
2022-12-24T13:17:34.092Z,1.07
2022-12-24T13:20:19.911Z,1.00
2022-12-24T13:22:50.002Z,1.10
2022-12-24T13:25:26.846Z,1.07
2022-12-24T13:27:54.182Z,1.20
2022-12-24T13:30:27.602Z,1.20
2022-12-24T13:32:55.533Z,1.00
2022-12-24T13:35:22.831Z,1.13
2022-12-24T13:37:50.835Z,1.00
2022-12-24T13:40:28.081Z,1.30
2022-12-24T13:43:01.475Z,0.90
2022-12-24T13:45:32.054Z,1.23
2022-12-24T13:48:01.726Z,0.97
2022-12-24T13:50:38.240Z,1.00
2022-12-24T13:53:07.008Z,1.30
2022-12-24T13:55:35.076Z,1.70
2022-12-24T13:58:06.215Z,1.20
2022-12-24T14:00:39.877Z,0.90
2022-12-24T14:03:13.575Z,1.00
2022-12-24T14:05:40.886Z,1.50
2022-12-24T14:08:11.342Z,1.07
2022-12-24T14:10:44.765Z,0.93
2022-12-24T14:13:31.027Z,0.70
2022-12-24T14:15:58.324Z,1.30
2022-12-24T14:18:25.776Z,1.00
2022-12-24T14:20:54.652Z,1.40
2022-12-24T14:23:29.287Z,0.87
2022-12-24T14:25:57.717Z,1.13
2022-12-24T14:28:27.861Z,1.10
2022-12-24T14:31:05.643Z,1.03
2022-12-24T14:33:33.987Z,1.00
2022-12-24T14:36:02.829Z,1.33
2022-12-24T14:38:30.725Z,0.93
2022-12-24T14:41:01.087Z,1.10
2022-12-24T14:43:34.122Z,0.90
2022-12-24T14:46:25.546Z,0.87
2022-12-24T14:48:55.555Z,1.13
2022-12-24T14:51:28.834Z,1.73
2022-12-24T14:54:15.192Z,1.03
2022-12-24T14:56:42.460Z,1.00
2022-12-24T14:59:17.271Z,1.13
2022-12-24T15:01:44.893Z,0.90
2022-12-24T15:04:12.326Z,1.13
2022-12-24T15:06:53.661Z,1.40
2022-12-24T15:09:23.280Z,0.90
2022-12-24T15:11:52.284Z,1.00
2022-12-24T15:14:20.344Z,1.23
2022-12-24T15:16:58.651Z,1.17
2022-12-24T15:19:32.815Z,0.80
2022-12-24T15:22:01.132Z,1.10
2022-12-24T15:24:32.294Z,1.10
2022-12-24T15:27:00.345Z,1.07
2022-12-24T15:29:29.296Z,1.10
2022-12-24T15:32:04.986Z,1.10
2022-12-24T15:34:39.732Z,1.10
2022-12-24T15:37:12.935Z,1.20
2022-12-24T15:39:40.655Z,1.40
2022-12-24T15:42:14.971Z,1.53
2022-12-24T15:44:44.426Z,1.27
2022-12-24T15:47:17.117Z,1.83
2022-12-24T15:49:46.832Z,1.40
2022-12-24T15:52:16.109Z,1.00
2022-12-24T15:54:50.876Z,1.00
2022-12-24T15:57:30.375Z,1.10
2022-12-24T15:59:58.250Z,1.33
2022-12-24T16:02:25.740Z,1.10
2022-12-24T16:04:53.311Z,1.37
2022-12-24T16:07:47.321Z,1.10
2022-12-24T16:10:26.974Z,1.40
2022-12-24T16:12:54.325Z,1.10
2022-12-24T16:15:21.654Z,1.03
2022-12-24T16:17:49.780Z,1.20
2022-12-24T16:20:20.615Z,1.10
2022-12-24T16:22:48.566Z,1.63
2022-12-24T16:25:22.918Z,1.70
2022-12-24T16:27:50.927Z,1.40
2022-12-24T16:30:19.134Z,1.30
2022-12-24T16:32:46.924Z,1.20
2022-12-24T16:35:27.681Z,1.20
2022-12-24T16:37:55.436Z,1.40
2022-12-24T16:40:27.296Z,1.10
2022-12-24T16:43:14.227Z,1.33
2022-12-24T16:45:41.841Z,1.17
2022-12-24T16:48:09.386Z,1.30
2022-12-24T16:50:36.639Z,1.50
2022-12-24T16:53:03.889Z,1.33
2022-12-24T16:55:31.214Z,1.17
2022-12-24T16:57:58.521Z,1.30
2022-12-24T17:00:25.956Z,1.40
2022-12-24T17:02:54.084Z,1.30
2022-12-24T17:05:23.790Z,1.30
2022-12-24T17:07:51.517Z,1.40
2022-12-24T17:10:19.156Z,1.70
2022-12-24T17:12:46.542Z,1.83
2022-12-24T17:15:13.891Z,1.60
2022-12-24T17:17:41.276Z,2.17
2022-12-24T17:20:09.112Z,1.63
2022-12-24T17:22:36.531Z,2.43
2022-12-24T17:25:04.114Z,1.87
2022-12-24T17:27:31.431Z,1.60
2022-12-24T17:29:58.713Z,1.53
2022-12-24T17:32:29.948Z,2.00
2022-12-24T17:35:00.276Z,1.40
2022-12-24T17:37:28.070Z,1.50
2022-12-24T17:39:56.036Z,1.60
2022-12-24T17:42:23.470Z,2.03
2022-12-24T17:44:50.822Z,1.10
2022-12-24T17:47:18.212Z,1.50
2022-12-24T17:49:45.511Z,1.80
2022-12-24T17:52:14.298Z,2.27
2022-12-24T17:54:41.658Z,2.27
2022-12-24T17:57:09.241Z,1.63
2022-12-24T17:59:36.553Z,1.77
2022-12-24T18:02:04.066Z,1.70
2022-12-24T18:04:31.522Z,1.80
2022-12-24T18:07:02.737Z,1.60
2022-12-24T18:09:30.989Z,1.43
2022-12-24T18:11:58.329Z,1.67
2022-12-24T18:14:25.629Z,1.87
2022-12-24T18:16:53.013Z,1.00
2022-12-24T18:19:20.758Z,1.17
2022-12-24T18:21:48.187Z,1.20
2022-12-24T18:24:15.565Z,1.57
2022-12-24T18:26:44.735Z,1.13
2022-12-24T18:29:12.510Z,1.87
2022-12-24T18:31:40.026Z,1.30
2022-12-24T18:34:08.512Z,1.83
2022-12-24T18:36:36.083Z,1.20
2022-12-24T18:39:03.674Z,1.77
2022-12-24T18:41:31.748Z,2.00
2022-12-24T18:43:59.730Z,2.43
2022-12-24T18:46:28.878Z,2.00
2022-12-24T18:48:57.510Z,2.43
2022-12-24T18:51:25.277Z,1.53
2022-12-24T18:53:52.629Z,2.20
2022-12-24T18:56:21.756Z,1.87
2022-12-24T18:58:49.513Z,1.97
2022-12-24T19:01:18.884Z,2.47
2022-12-24T19:03:46.503Z,1.93
2022-12-24T19:06:14.050Z,1.60
2022-12-24T19:08:58.996Z,1.93
2022-12-24T19:11:29.371Z,2.23
2022-12-24T19:13:58.198Z,2.07
2022-12-24T19:16:25.845Z,1.93
2022-12-24T19:18:53.373Z,2.10
2022-12-24T19:21:21.215Z,2.17
2022-12-24T19:23:48.837Z,1.80
2022-12-24T19:26:16.989Z,1.90
2022-12-24T19:28:44.406Z,1.83
2022-12-24T19:31:16.177Z,2.03
2022-12-24T19:33:45.452Z,1.60
2022-12-24T19:36:17.592Z,1.97
2022-12-24T19:38:45.057Z,2.50
2022-12-24T19:41:16.823Z,2.40
2022-12-24T19:43:45.678Z,2.50
2022-12-24T19:46:14.674Z,2.30
2022-12-24T19:48:42.686Z,1.80
2022-12-24T19:51:11.352Z,2.20
2022-12-24T19:53:39.171Z,1.97
2022-12-24T19:56:06.663Z,2.20
2022-12-24T19:58:34.956Z,2.70
2022-12-24T20:01:21.742Z,2.83
2022-12-24T20:03:50.248Z,1.93
2022-12-24T20:06:18.866Z,2.10
2022-12-24T20:08:46.517Z,2.07
2022-12-24T20:11:15.097Z,1.67
2022-12-24T20:13:42.823Z,2.13
2022-12-24T20:16:14.676Z,2.20
2022-12-24T20:18:42.238Z,1.73
2022-12-24T20:21:10.636Z,2.07
2022-12-24T20:23:38.600Z,1.77
2022-12-24T20:26:06.529Z,1.87
2022-12-24T20:28:35.945Z,1.63
2022-12-24T20:31:09.690Z,2.47
2022-12-24T20:33:37.262Z,1.80
2022-12-24T20:36:04.955Z,1.60
2022-12-24T20:38:32.302Z,1.63
2022-12-24T20:40:59.689Z,2.47
2022-12-24T20:43:34.156Z,1.73
2022-12-24T20:46:04.071Z,1.80
2022-12-24T20:48:32.167Z,2.60
2022-12-24T20:50:59.538Z,2.33
2022-12-24T20:53:27.536Z,1.90
2022-12-24T20:55:55.009Z,2.40
2022-12-24T20:58:22.356Z,2.50
2022-12-24T21:00:50.201Z,2.13
2022-12-24T21:03:18.227Z,2.30
2022-12-24T21:05:45.941Z,2.37
2022-12-24T21:08:13.532Z,3.23
2022-12-24T21:10:41.223Z,2.43
2022-12-24T21:13:08.761Z,1.77
2022-12-24T21:15:39.451Z,2.17
2022-12-24T21:18:11.732Z,1.87
2022-12-24T21:20:39.724Z,1.87
2022-12-24T21:23:07.164Z,1.40
2022-12-24T21:25:34.748Z,2.80
2022-12-24T21:28:02.164Z,1.60
2022-12-24T21:30:29.596Z,1.70
2022-12-24T21:32:56.935Z,2.20
2022-12-24T21:35:24.225Z,2.03
2022-12-24T21:37:51.561Z,2.60
2022-12-24T21:40:18.899Z,2.23
2022-12-24T21:42:46.194Z,2.63
2022-12-24T21:45:13.470Z,2.17
2022-12-24T21:47:44.555Z,3.17
2022-12-24T21:50:32.379Z,2.93
2022-12-24T21:53:18.882Z,2.07
2022-12-24T21:55:46.202Z,2.23
2022-12-24T21:58:13.493Z,2.57
2022-12-24T22:00:40.772Z,3.03
2022-12-24T22:03:08.172Z,2.03
2022-12-24T22:05:35.837Z,1.83
2022-12-24T22:08:21.777Z,2.17
2022-12-24T22:11:07.701Z,2.67
2022-12-24T22:13:35.005Z,2.67
2022-12-24T22:16:02.323Z,2.50
2022-12-24T22:18:29.661Z,3.03
2022-12-24T22:20:56.937Z,1.77
2022-12-24T22:23:24.225Z,1.63
2022-12-24T22:25:51.507Z,2.77
2022-12-24T22:28:20.030Z,2.20
2022-12-24T22:30:47.400Z,2.30
2022-12-24T22:33:14.742Z,2.20
2022-12-24T22:35:42.211Z,2.43
2022-12-24T22:38:10.112Z,2.10
2022-12-24T22:40:39.516Z,2.20
2022-12-24T22:43:07.468Z,2.00
2022-12-24T22:45:34.761Z,2.40
2022-12-24T22:48:02.671Z,2.07
2022-12-24T22:50:29.964Z,2.53
2022-12-24T22:52:57.279Z,1.80
2022-12-24T22:55:25.261Z,2.13
2022-12-24T22:57:52.640Z,2.10
2022-12-24T23:00:35.489Z,1.97
2022-12-24T23:03:03.099Z,2.27
2022-12-24T23:05:30.542Z,2.23
2022-12-24T23:07:57.982Z,2.30
2022-12-24T23:10:25.369Z,2.17
2022-12-24T23:13:15.159Z,2.67
2022-12-24T23:15:43.051Z,2.43
2022-12-24T23:18:11.012Z,1.87
2022-12-24T23:20:39.402Z,2.00
2022-12-24T23:23:06.814Z,1.90
2022-12-24T23:25:34.346Z,1.90
2022-12-24T23:28:01.603Z,2.17
2022-12-24T23:30:28.846Z,2.30
2022-12-24T23:32:56.436Z,2.03
2022-12-24T23:35:23.709Z,2.60
2022-12-24T23:37:50.949Z,2.10
2022-12-24T23:40:18.276Z,2.57
2022-12-24T23:42:45.574Z,2.43
2022-12-24T23:45:13.310Z,2.67
2022-12-24T23:47:40.573Z,1.70
2022-12-24T23:50:08.246Z,1.93
2022-12-24T23:52:35.493Z,1.83
2022-12-24T23:55:02.781Z,2.40
2022-12-24T23:57:30.113Z,2.47
2022-12-24T23:59:57.380Z,2.97
